Dobbins Air Reserve Base Airport
KMGE : rendu visible

Aérodrome :











RETROUVEZ-NOUS SUR...

 
LOGIN :

S'inscrire | Disclaimer

   EN    FR    IT 

 









Légende :    VFR   VFR Marginal   IFR   IFR Intensif   IFR Très Intensif
Visi : 
Plafond : 
>= 8 km
>= 3000ft
5 à 8 km
1000 à 3000 ft
1500m à 5 km
500 à 1000 ft
800 à 1500m
200 à 500 ft
< 800m
< 200 ft
Symboles :   Orages  Brouillard  Fortes neiges  Fortes précipitations  Vent > 20 kt






- Altitude de l'aérodrome : 1068 ft


KMGE - Dobbins Air Reserve Base

DERNIER METAR :
  • 280757Z AUTO 19005KT 8SM -DZ OVC008 20/20 A2991 RMK AO2 DZB56 CIG 007V011 SLP120 $

METARs EXPIRÉS :
  • 280745Z AUTO 19004KT 8SM OVC009 21/20 A2991 RMK AO2 CIG 009V011 SLP120 $
  • 280711Z AUTO 18006KT 10SM BKN012 BKN029 21/19 A2992 RMK AO2 CIG 012V029 BKN012 V SCT SLP123 $
  • 280656Z AUTO 18005KT 10SM FEW011 SCT023 BKN030 21/19 A2992 RMK AO2 SLP123 T02080191 $
  • 280626Z AUTO 18005KT 10SM SCT014 BKN022 21/19 A2992 RMK AO2 CIG 015V022 CIG 013 RWY11 SLP123 $
  • 280556Z AUTO 18005KT 10SM BKN015 BKN020 21/19 A2993 RMK AO2 SLP127 T02080194 10228 20206 58003 $
  • 280526Z AUTO 18003KT 10SM FEW008 FEW024 21/19 A2993 RMK AO2 SLP127 $
  • 280511Z AUTO 17004KT 10SM SCT008 BKN023 21/19 A2993 RMK AO2 CIG 008V023 BKN V SCT CIG 009 RWY11 SLP127 $

TAF AMD TAF KMGE
Valide du 28 à 06h jusqu'au 29 à 11h UTC


280633Z 2806/2911 20006KT 9999 FEW015 BKN020 QNH2992INS
BECMG 2807/2808 20006KT 9999 BKN015 QNH2992INS
BECMG 2813/2814 21006KT 8000 -SHRA BKN008 QNH2993INS
BECMG 2815/2816 21010G15KT 8000 -SHRA BKN020 QNH2992INS
BECMG 2817/2818 20012G18KT 9999 SCT030 QNH2990INS
BECMG 2823/2824 18006KT 9999 BKN040 QNH2983INS
BECMG 2902/2903 24009KT 8000 -SHRA OVC010 QNH2985INS
TEMPO 2903/2906 30015G20KT -TSRA OVC008 TX27/2818Z TN20/2810Z
FIR KZTL / Amérique du Nord



MET'MAP, la Météo Aéronautique d'un coup d'oeil ! - Copyright ORBIFLY Décembre 2007 - Disclaimer

ORBIFLY MET'MAP TEAM :

Programmation & Développement : Alexandra Zaïnal
Sur une idée originale de : Baudouin d'Aumeries
Assistance à la programmation : Marc-Olivier Méhu
Soutien technique & logistique : Manuel Goepfert

Contact : metmap@orbifly.com




SOURCES & CREDITS :

   NOAA       Earth
Advisory